Time;durP1;ratioP1;P1;durP2;ratioP2;P2;SDS_P1;SDS_P2;PMS_P1;PMS_P2;Temp;Humidity;BMP_temperature;BMP_pressure;BME280_temperature;BME280_humidity;BME280_pressure;Samples;Min_cycle;Max_cycle;Signal;HPM_P1;HPM_P2
2023/07/28 00:01:00;;;;;;;34.65;11.60;;;;;;;;;;5054809;28;20450;-75
2023/07/28 00:03:26;;;;;;;30.40;11.40;;;;;;;;;;5055277;28;20041;-74
2023/07/28 00:05:52;;;;;;;26.95;10.88;;;;;;;;;;5055934;28;20056;-74
2023/07/28 00:08:18;;;;;;;30.48;11.38;;;;;;;;;;5059563;28;20076;-74
2023/07/28 00:10:44;;;;;;;25.42;10.80;;;;;;;;;;5073581;28;20407;-74
2023/07/28 00:13:10;;;;;;;25.38;10.43;;;;;;;;;;5074903;28;20107;-74
2023/07/28 00:15:37;;;;;;;24.92;11.80;;;;;;;;;;5074518;28;20044;-75
2023/07/28 00:18:03;;;;;;;29.20;11.20;;;;;;;;;;5072370;28;20489;-75
2023/07/28 00:20:29;;;;;;;26.35;11.45;;;;;;;;;;5074624;28;20047;-74
2023/07/28 00:22:55;;;;;;;29.17;10.98;;;;;;;;;;5073812;28;20037;-75
2023/07/28 00:25:22;;;;;;;28.02;10.98;;;;;;;;;;5074707;28;20045;-75
2023/07/28 00:27:48;;;;;;;26.00;11.50;;;;;;;;;;5073173;28;20088;-75
2023/07/28 00:30:14;;;;;;;25.08;10.98;;;;;;;;;;5069873;28;20044;-75
2023/07/28 00:32:40;;;;;;;26.40;11.07;;;;;;;;;;5055250;28;20052;-75
2023/07/28 00:35:06;;;;;;;27.25;11.05;;;;;;;;;;5060022;28;20051;-75
2023/07/28 00:37:33;;;;;;;25.42;11.20;;;;;;;;;;5059519;28;20091;-75
2023/07/28 00:39:59;;;;;;;29.48;11.45;;;;;;;;;;5055245;28;20396;-75
2023/07/28 00:42:25;;;;;;;27.13;11.05;;;;;;;;;;5054153;28;20048;-75
2023/07/28 00:44:51;;;;;;;29.40;10.98;;;;;;;;;;5054771;28;20049;-75
2023/07/28 00:47:17;;;;;;;27.30;11.13;;;;;;;;;;5054094;28;20178;-75
2023/07/28 00:49:43;;;;;;;32.75;10.80;;;;;;;;;;5054435;28;20044;-75
2023/07/28 00:52:10;;;;;;;29.70;11.27;;;;;;;;;;5054125;28;20041;-75
2023/07/28 00:54:36;;;;;;;29.02;10.85;;;;;;;;;;5062242;28;20048;-75
2023/07/28 00:57:03;;;;;;;29.48;10.77;;;;;;;;;;5073608;28;20158;-74
2023/07/28 00:59:29;;;;;;;36.28;13.00;;;;;;;;;;5069124;28;20045;-74
2023/07/28 01:01:55;;;;;;;33.50;11.73;;;;;;;;;;5070044;28;20036;-74
2023/07/28 01:04:21;;;;;;;31.02;11.70;;;;;;;;;;5062917;28;20076;-74
2023/07/28 01:07:01;;;;;;;29.48;10.82;;;;;;;;;;5072361;28;20134;-74
2023/07/28 01:09:32;;;;;;;32.85;11.55;;;;;;;;;;5057543;28;20048;-75
2023/07/28 01:12:00;;;;;;;27.35;11.07;;;;;;;;;;5071067;28;20126;-75
2023/07/28 01:14:26;;;;;;;35.75;12.13;;;;;;;;;;5073913;28;20044;-74
2023/07/28 01:16:52;;;;;;;30.42;10.55;;;;;;;;;;5073741;28;20044;-74
2023/07/28 01:19:19;;;;;;;31.58;10.52;;;;;;;;;;5064618;28;20123;-75
2023/07/28 01:21:48;;;;;;;28.92;10.52;;;;;;;;;;5060993;28;20052;-75
2023/07/28 01:24:14;;;;;;;29.27;11.18;;;;;;;;;;5054206;28;20037;-75
2023/07/28 01:26:41;;;;;;;26.38;11.00;;;;;;;;;;5056264;28;20041;-75
2023/07/28 01:29:07;;;;;;;24.17;10.13;;;;;;;;;;5060253;28;20061;-76
2023/07/28 01:31:33;;;;;;;27.98;10.98;;;;;;;;;;5053483;28;20124;-75
2023/07/28 01:33:59;;;;;;;26.17;10.07;;;;;;;;;;5053552;28;20049;-74
2023/07/28 01:36:25;;;;;;;33.13;11.48;;;;;;;;;;5052760;28;20048;-75
2023/07/28 01:38:51;;;;;;;25.35;10.98;;;;;;;;;;5054149;28;20045;-75
2023/07/28 01:41:17;;;;;;;36.70;11.27;;;;;;;;;;5053234;28;20068;-75
2023/07/28 01:43:43;;;;;;;35.47;11.68;;;;;;;;;;5065873;28;20044;-75
2023/07/28 01:46:09;;;;;;;27.08;11.20;;;;;;;;;;5067761;28;20036;-75
2023/07/28 01:48:36;;;;;;;34.78;11.85;;;;;;;;;;5068866;28;20040;-75
2023/07/28 01:51:02;;;;;;;31.55;11.98;;;;;;;;;;5053363;28;20041;-75
2023/07/28 01:53:28;;;;;;;30.85;11.95;;;;;;;;;;5053303;28;20041;-75
2023/07/28 01:55:54;;;;;;;27.83;11.57;;;;;;;;;;5053556;28;20059;-75
2023/07/28 01:58:20;;;;;;;27.38;11.35;;;;;;;;;;5053715;28;20515;-75
2023/07/28 02:00:46;;;;;;;25.75;11.40;;;;;;;;;;5036190;28;20102;-75
2023/07/28 02:03:12;;;;;;;30.80;11.88;;;;;;;;;;5053270;28;20041;-75
2023/07/28 02:05:39;;;;;;;31.00;11.68;;;;;;;;;;5052894;28;20041;-75
2023/07/28 02:08:05;;;;;;;32.30;11.77;;;;;;;;;;5062555;28;20041;-75
2023/07/28 02:10:31;;;;;;;33.20;12.05;;;;;;;;;;5051554;28;20174;-75
2023/07/28 02:12:57;;;;;;;30.25;10.90;;;;;;;;;;5066722;28;20051;-75
2023/07/28 02:15:23;;;;;;;31.20;10.88;;;;;;;;;;5068824;28;20053;-75
2023/07/28 02:17:49;;;;;;;33.08;11.48;;;;;;;;;;5072173;28;20443;-75
2023/07/28 02:20:15;;;;;;;32.25;11.18;;;;;;;;;;5071492;28;20114;-75
2023/07/28 02:22:42;;;;;;;28.13;11.05;;;;;;;;;;5076404;28;20048;-75
2023/07/28 02:25:09;;;;;;;29.00;10.27;;;;;;;;;;5076186;28;20506;-75
2023/07/28 02:27:35;;;;;;;24.42;9.40;;;;;;;;;;5076298;28;20067;-74
2023/07/28 02:30:01;;;;;;;24.90;10.40;;;;;;;;;;5076671;28;20400;-75
2023/07/28 02:32:28;;;;;;;26.50;10.55;;;;;;;;;;5073857;28;20044;-75
2023/07/28 02:34:55;;;;;;;25.70;10.02;;;;;;;;;;5074717;28;20127;-75
2023/07/28 02:37:21;;;;;;;36.20;11.02;;;;;;;;;;5058025;28;20071;-74
2023/07/28 02:39:47;;;;;;;31.77;10.85;;;;;;;;;;5057083;28;20040;-74
2023/07/28 02:42:13;;;;;;;27.77;9.77;;;;;;;;;;5058434;28;20060;-75
2023/07/28 02:44:39;;;;;;;29.48;9.10;;;;;;;;;;5076304;28;20048;-75
2023/07/28 02:47:06;;;;;;;27.05;9.63;;;;;;;;;;5075225;28;20048;-75
2023/07/28 02:49:32;;;;;;;20.63;9.10;;;;;;;;;;5080398;28;20040;-75
2023/07/28 02:51:58;;;;;;;21.30;9.38;;;;;;;;;;5076471;28;20498;-75
2023/07/28 02:54:25;;;;;;;23.23;8.85;;;;;;;;;;5064692;28;20170;-75
2023/07/28 02:56:51;;;;;;;24.80;9.23;;;;;;;;;;5070161;28;20043;-75
2023/07/28 02:59:17;;;;;;;22.90;8.93;;;;;;;;;;5076520;28;20044;-75
2023/07/28 03:01:43;;;;;;;25.17;8.80;;;;;;;;;;5064148;28;20494;-75
2023/07/28 03:04:09;;;;;;;29.38;9.52;;;;;;;;;;5067047;28;20048;-74
2023/07/28 03:06:35;;;;;;;24.83;9.35;;;;;;;;;;5076431;28;20047;-74
2023/07/28 03:09:02;;;;;;;24.27;9.13;;;;;;;;;;5076298;28;20129;-75
2023/07/28 03:11:28;;;;;;;41.45;9.20;;;;;;;;;;5072901;28;20048;-75
2023/07/28 03:13:54;;;;;;;22.45;8.25;;;;;;;;;;5055518;28;20053;-75
2023/07/28 03:16:20;;;;;;;28.77;9.15;;;;;;;;;;5054375;28;20056;-75
2023/07/28 03:18:46;;;;;;;25.10;8.95;;;;;;;;;;5073758;28;20040;-75
2023/07/28 03:21:12;;;;;;;26.15;8.93;;;;;;;;;;5074595;28;20121;-75
2023/07/28 03:23:38;;;;;;;28.23;8.45;;;;;;;;;;5069924;28;20041;-75
2023/07/28 03:26:04;;;;;;;22.83;8.48;;;;;;;;;;5059178;28;20041;-75
2023/07/28 03:28:30;;;;;;;27.55;8.85;;;;;;;;;;5055811;28;20051;-75
2023/07/28 03:30:56;;;;;;;22.17;8.90;;;;;;;;;;5055636;28;20083;-75
2023/07/28 03:33:22;;;;;;;20.63;8.13;;;;;;;;;;5055403;28;20049;-75
2023/07/28 03:35:48;;;;;;;26.58;8.20;;;;;;;;;;5054367;28;20448;-75
2023/07/28 03:38:14;;;;;;;22.83;8.30;;;;;;;;;;5054044;28;20049;-75
2023/07/28 03:40:41;;;;;;;19.15;7.50;;;;;;;;;;5057765;28;20071;-75
2023/07/28 03:43:07;;;;;;;19.27;8.15;;;;;;;;;;5071166;28;20128;-75
2023/07/28 03:45:33;;;;;;;27.17;8.95;;;;;;;;;;5053984;28;20483;-75
2023/07/28 03:47:59;;;;;;;17.48;7.63;;;;;;;;;;5037662;28;20045;-75
2023/07/28 03:50:26;;;;;;;19.52;8.07;;;;;;;;;;5073353;28;20056;-75
2023/07/28 03:52:52;;;;;;;25.38;8.13;;;;;;;;;;5073348;28;20059;-75
2023/07/28 03:55:18;;;;;;;15.23;7.75;;;;;;;;;;5067138;28;20068;-75
2023/07/28 03:57:44;;;;;;;17.08;7.55;;;;;;;;;;5065345;28;20106;-75
2023/07/28 04:00:11;;;;;;;18.70;8.70;;;;;;;;;;5072640;28;20123;-75
2023/07/28 04:02:37;;;;;;;20.40;8.27;;;;;;;;;;5073647;28;20058;-75
2023/07/28 04:05:03;;;;;;;18.92;8.38;;;;;;;;;;5059727;28;20069;-75
2023/07/28 04:07:29;;;;;;;20.77;9.00;;;;;;;;;;5074764;28;20465;-75
2023/07/28 04:09:55;;;;;;;19.63;9.50;;;;;;;;;;5074940;28;20040;-75
2023/07/28 04:12:21;;;;;;;21.00;8.90;;;;;;;;;;5075103;28;20172;-75
2023/07/28 04:14:47;;;;;;;15.63;7.78;;;;;;;;;;5062876;28;20044;-75
2023/07/28 04:17:13;;;;;;;15.15;8.20;;;;;;;;;;5073399;28;20041;-75
2023/07/28 04:19:39;;;;;;;18.10;8.30;;;;;;;;;;5073557;28;20049;-75
2023/07/28 04:22:05;;;;;;;20.20;8.65;;;;;;;;;;5073607;28;20049;-75
2023/07/28 04:24:31;;;;;;;20.98;8.23;;;;;;;;;;5061365;28;20053;-75
2023/07/28 04:26:58;;;;;;;13.52;8.40;;;;;;;;;;5054584;28;20044;-75
2023/07/28 04:29:24;;;;;;;18.98;9.93;;;;;;;;;;5067666;28;20051;-75
2023/07/28 04:31:50;;;;;;;15.77;8.55;;;;;;;;;;5074748;28;20387;-75
2023/07/28 04:34:16;;;;;;;15.98;9.50;;;;;;;;;;5061448;28;20041;-75
2023/07/28 04:36:42;;;;;;;17.33;10.15;;;;;;;;;;5052906;28;20472;-75
2023/07/28 04:39:08;;;;;;;20.90;9.95;;;;;;;;;;5054242;28;20049;-74
2023/07/28 04:41:34;;;;;;;16.67;9.90;;;;;;;;;;5052987;28;20110;-75
2023/07/28 04:44:00;;;;;;;17.30;10.77;;;;;;;;;;5056376;28;20037;-75
2023/07/28 04:46:26;;;;;;;14.05;10.05;;;;;;;;;;5054276;28;20045;-75
2023/07/28 04:48:54;;;;;;;17.00;11.35;;;;;;;;;;5054424;28;20048;-75
2023/07/28 04:51:20;;;;;;;17.33;12.15;;;;;;;;;;5054048;28;20514;-75
2023/07/28 04:53:46;;;;;;;14.85;11.23;;;;;;;;;;5054109;28;20398;-75
2023/07/28 04:56:12;;;;;;;18.40;11.90;;;;;;;;;;5059561;28;20057;-75
2023/07/28 04:58:38;;;;;;;17.35;12.68;;;;;;;;;;5055023;28;20364;-75
2023/07/28 05:01:05;;;;;;;14.23;11.35;;;;;;;;;;5066279;28;20439;-74
2023/07/28 05:03:31;;;;;;;15.63;11.82;;;;;;;;;;5069706;28;20037;-74
2023/07/28 05:05:57;;;;;;;15.38;11.45;;;;;;;;;;5066911;28;20437;-75
2023/07/28 05:08:23;;;;;;;15.77;12.02;;;;;;;;;;5073704;28;20040;-75
2023/07/28 05:10:49;;;;;;;16.58;12.52;;;;;;;;;;5071800;28;20044;-75
2023/07/28 05:13:15;;;;;;;17.63;13.05;;;;;;;;;;5068683;28;20048;-75
2023/07/28 05:15:41;;;;;;;19.55;12.88;;;;;;;;;;5053905;28;20365;-75
2023/07/28 05:18:07;;;;;;;16.77;13.55;;;;;;;;;;5052584;28;20060;-76
2023/07/28 05:20:33;;;;;;;15.85;12.88;;;;;;;;;;5054257;28;20041;-75
2023/07/28 05:22:59;;;;;;;16.90;13.07;;;;;;;;;;5063257;28;20119;-75
2023/07/28 05:25:30;;;;;;;17.42;12.40;;;;;;;;;;5060865;28;20072;-75
2023/07/28 05:27:57;;;;;;;16.23;13.68;;;;;;;;;;5065820;28;20438;-75
2023/07/28 05:30:23;;;;;;;18.67;13.02;;;;;;;;;;5067862;28;20048;-75
2023/07/28 05:32:49;;;;;;;17.08;13.45;;;;;;;;;;5066012;28;20040;-75
2023/07/28 05:35:15;;;;;;;17.15;12.98;;;;;;;;;;5066498;28;20049;-77
2023/07/28 05:37:41;;;;;;;18.55;13.45;;;;;;;;;;5059364;28;20190;-75
2023/07/28 05:40:08;;;;;;;16.65;13.70;;;;;;;;;;5060787;28;20439;-76
2023/07/28 05:42:34;;;;;;;17.15;12.48;;;;;;;;;;5054314;28;20052;-76
2023/07/28 05:45:01;;;;;;;17.65;12.45;;;;;;;;;;5058685;28;20124;-76
2023/07/28 05:47:27;;;;;;;17.23;12.60;;;;;;;;;;5059292;28;20451;-75
2023/07/28 05:49:54;;;;;;;18.63;11.80;;;;;;;;;;5059426;28;20070;-76
2023/07/28 05:52:20;;;;;;;16.58;11.65;;;;;;;;;;5058134;28;20441;-76
2023/07/28 05:54:46;;;;;;;16.08;11.57;;;;;;;;;;5058760;28;20149;-75
2023/07/28 05:57:13;;;;;;;17.90;11.60;;;;;;;;;;5057187;28;20131;-76
2023/07/28 05:59:39;;;;;;;16.02;11.52;;;;;;;;;;5059753;28;20792;-76
2023/07/28 06:02:06;;;;;;;14.55;10.85;;;;;;;;;;5055818;28;20376;-76
2023/07/28 06:04:32;;;;;;;14.93;10.82;;;;;;;;;;5058424;28;20140;-76
2023/07/28 06:06:58;;;;;;;15.20;11.02;;;;;;;;;;5061059;28;20044;-76
2023/07/28 06:09:25;;;;;;;15.50;9.82;;;;;;;;;;5055558;28;20064;-76
2023/07/28 06:11:51;;;;;;;14.25;10.98;;;;;;;;;;5059824;28;20056;-76
2023/07/28 06:14:17;;;;;;;17.35;11.25;;;;;;;;;;5061176;28;20541;-76
2023/07/28 06:16:43;;;;;;;13.73;10.30;;;;;;;;;;5059362;28;20056;-76
2023/07/28 06:19:09;;;;;;;13.77;9.93;;;;;;;;;;5062363;28;20411;-76
2023/07/28 06:21:36;;;;;;;14.55;11.15;;;;;;;;;;5058695;28;20044;-76
2023/07/28 06:24:02;;;;;;;14.27;11.10;;;;;;;;;;5062354;28;20703;-75
2023/07/28 06:26:28;;;;;;;12.15;9.70;;;;;;;;;;5059566;28;20048;-76
2023/07/28 06:28:54;;;;;;;11.35;9.43;;;;;;;;;;5059235;28;20044;-76
2023/07/28 06:31:21;;;;;;;13.02;9.95;;;;;;;;;;5058362;28;20090;-76
2023/07/28 06:33:47;;;;;;;13.00;10.20;;;;;;;;;;5061459;28;20149;-76
2023/07/28 06:36:13;;;;;;;14.23;10.45;;;;;;;;;;5072072;28;20467;-76
2023/07/28 06:38:39;;;;;;;12.35;9.27;;;;;;;;;;5067279;28;20406;-75
2023/07/28 06:41:05;;;;;;;13.70;10.68;;;;;;;;;;5056812;28;20052;-75
2023/07/28 06:43:32;;;;;;;14.18;10.38;;;;;;;;;;5063830;28;20041;-75
2023/07/28 06:45:58;;;;;;;12.77;10.07;;;;;;;;;;5052592;28;20474;-75
2023/07/28 06:48:24;;;;;;;12.75;9.30;;;;;;;;;;5061207;28;20048;-75
2023/07/28 06:50:50;;;;;;;12.13;9.68;;;;;;;;;;5065883;28;20032;-75
2023/07/28 06:53:16;;;;;;;13.23;9.85;;;;;;;;;;5072629;28;20044;-80
2023/07/28 06:55:43;;;;;;;13.82;10.52;;;;;;;;;;5056185;28;20047;-76
2023/07/28 06:58:09;;;;;;;12.45;9.32;;;;;;;;;;5055025;28;20055;-80
2023/07/28 07:00:36;;;;;;;12.15;9.48;;;;;;;;;;5062584;28;20106;-78
2023/07/28 07:03:02;;;;;;;12.73;9.68;;;;;;;;;;5053351;28;20041;-76
2023/07/28 07:05:28;;;;;;;13.65;9.35;;;;;;;;;;5064670;28;20045;-78
2023/07/28 07:07:54;;;;;;;13.15;9.75;;;;;;;;;;5070211;28;20043;-76
2023/07/28 07:10:20;;;;;;;14.27;9.63;;;;;;;;;;5073971;28;20127;-76
2023/07/28 07:12:47;;;;;;;11.63;9.20;;;;;;;;;;5076430;28;20048;-75
2023/07/28 07:15:13;;;;;;;11.10;8.70;;;;;;;;;;5076246;28;20052;-77
2023/07/28 07:17:39;;;;;;;12.20;9.43;;;;;;;;;;5075725;28;20086;-76
2023/07/28 07:20:06;;;;;;;11.88;9.88;;;;;;;;;;5076226;28;20052;-75
2023/07/28 07:22:32;;;;;;;12.55;8.38;;;;;;;;;;5062520;28;20044;-82
2023/07/28 07:24:58;;;;;;;11.95;9.35;;;;;;;;;;5062959;28;20461;-75
2023/07/28 07:27:25;;;;;;;14.23;10.13;;;;;;;;;;5059400;28;20037;-75
2023/07/28 07:29:51;;;;;;;13.15;10.27;;;;;;;;;;5075310;28;20079;-76
2023/07/28 07:32:17;;;;;;;12.75;9.23;;;;;;;;;;5059526;28;20051;-75
2023/07/28 07:34:43;;;;;;;9.98;7.32;;;;;;;;;;5055685;28;20040;-75
2023/07/28 07:37:10;;;;;;;8.45;6.85;;;;;;;;;;5066386;28;20399;-77
2023/07/28 07:39:36;;;;;;;8.25;7.30;;;;;;;;;;5059529;28;20174;-75
2023/07/28 07:42:02;;;;;;;8.25;6.90;;;;;;;;;;5062150;28;20072;-76
2023/07/28 07:44:29;;;;;;;8.65;7.43;;;;;;;;;;5063834;28;21787;-75
2023/07/28 07:46:56;;;;;;;9.27;7.65;;;;;;;;;;5076731;28;20044;-75
2023/07/28 07:49:23;;;;;;;9.18;7.30;;;;;;;;;;5074639;28;20328;-75
2023/07/28 07:51:49;;;;;;;9.48;7.68;;;;;;;;;;5057544;28;20049;-75
2023/07/28 07:54:18;;;;;;;8.25;6.80;;;;;;;;;;5064080;28;20056;-75
2023/07/28 07:56:44;;;;;;;10.02;7.38;;;;;;;;;;5062481;28;20548;-75
2023/07/28 07:59:10;;;;;;;7.63;6.38;;;;;;;;;;5056635;28;20121;-75
2023/07/28 08:01:36;;;;;;;9.35;6.88;;;;;;;;;;5060105;28;20197;-75
2023/07/28 08:04:03;;;;;;;8.48;6.93;;;;;;;;;;5059770;28;20051;-75
2023/07/28 08:06:29;;;;;;;9.35;7.60;;;;;;;;;;5070365;28;20047;-75
2023/07/28 08:08:56;;;;;;;11.13;8.23;;;;;;;;;;5063514;28;20068;-75
2023/07/28 08:11:23;;;;;;;9.23;7.70;;;;;;;;;;5072808;28;20412;-75
2023/07/28 08:13:49;;;;;;;9.68;7.70;;;;;;;;;;5074783;28;20041;-75
2023/07/28 08:16:15;;;;;;;9.15;7.82;;;;;;;;;;5063450;28;20036;-75
2023/07/28 08:18:41;;;;;;;9.45;7.72;;;;;;;;;;5073618;28;20058;-75
2023/07/28 08:21:07;;;;;;;8.30;7.22;;;;;;;;;;5074923;28;20072;-75
2023/07/28 08:23:34;;;;;;;9.68;7.97;;;;;;;;;;5074418;28;20048;-75
2023/07/28 08:26:00;;;;;;;7.75;6.53;;;;;;;;;;5063482;28;20076;-75
2023/07/28 08:28:26;;;;;;;6.93;6.18;;;;;;;;;;5063730;28;20422;-76
2023/07/28 08:30:56;;;;;;;7.88;5.93;;;;;;;;;;5073527;28;20068;-80
2023/07/28 08:33:22;;;;;;;6.97;5.95;;;;;;;;;;5066482;28;20052;-76
2023/07/28 08:35:48;;;;;;;6.53;5.80;;;;;;;;;;5084522;28;20048;-79
2023/07/28 08:38:15;;;;;;;6.55;5.85;;;;;;;;;;5051411;28;20479;-75
2023/07/28 08:40:41;;;;;;;6.30;5.68;;;;;;;;;;5071829;28;20503;-76
2023/07/28 08:43:07;;;;;;;7.75;5.80;;;;;;;;;;5074392;28;20438;-77
2023/07/28 08:45:33;;;;;;;6.57;5.68;;;;;;;;;;5065721;28;20040;-75
2023/07/28 08:48:00;;;;;;;6.90;5.70;;;;;;;;;;5068081;28;20048;-75
2023/07/28 08:50:26;;;;;;;6.88;6.18;;;;;;;;;;5073882;28;20098;-75
2023/07/28 08:52:52;;;;;;;6.28;5.35;;;;;;;;;;5069540;28;20094;-75
2023/07/28 08:55:18;;;;;;;6.03;4.90;;;;;;;;;;5072918;28;20045;-75
2023/07/28 08:57:44;;;;;;;5.90;5.13;;;;;;;;;;5072787;28;20382;-75
2023/07/28 09:00:13;;;;;;;11.32;4.95;;;;;;;;;;5073267;28;20487;-75
2023/07/28 09:02:40;;;;;;;5.70;5.10;;;;;;;;;;5072785;28;20122;-75
2023/07/28 09:05:06;;;;;;;7.95;5.88;;;;;;;;;;5060346;28;20045;-75
2023/07/28 09:07:36;;;;;;;6.88;6.18;;;;;;;;;;5073435;28;20063;-75
2023/07/28 09:10:03;;;;;;;7.13;6.15;;;;;;;;;;5060731;28;20068;-75
2023/07/28 09:12:31;;;;;;;7.63;6.68;;;;;;;;;;5072246;28;20048;-75
2023/07/28 09:14:57;;;;;;;8.43;7.35;;;;;;;;;;5064665;28;20045;-75
2023/07/28 09:17:23;;;;;;;9.95;8.00;;;;;;;;;;5051966;28;20067;-75
2023/07/28 09:19:53;;;;;;;9.38;8.35;;;;;;;;;;5061197;28;20044;-75
2023/07/28 09:22:23;;;;;;;11.80;8.30;;;;;;;;;;5072767;28;20124;-75
2023/07/28 09:24:49;;;;;;;8.10;7.18;;;;;;;;;;5075309;28;20039;-77
2023/07/28 09:27:23;;;;;;;9.95;8.07;;;;;;;;;;5069117;28;20466;-76
2023/07/28 09:29:50;;;;;;;8.93;7.07;;;;;;;;;;5063847;28;20127;-75
2023/07/28 09:32:16;;;;;;;9.98;7.55;;;;;;;;;;5062590;28;20044;-76
2023/07/28 09:34:44;;;;;;;8.60;7.60;;;;;;;;;;5068736;28;20079;-76
2023/07/28 09:37:10;;;;;;;9.68;7.32;;;;;;;;;;5065414;28;20084;-76
2023/07/28 09:39:37;;;;;;;8.55;7.20;;;;;;;;;;5067444;28;20049;-76
2023/07/28 09:42:04;;;;;;;8.88;7.38;;;;;;;;;;5072942;28;20098;-77
2023/07/28 09:44:30;;;;;;;9.75;7.80;;;;;;;;;;5060022;28;20045;-76
2023/07/28 09:46:57;;;;;;;7.20;6.47;;;;;;;;;;5068395;28;20046;-77
2023/07/28 09:49:35;;;;;;;7.95;6.28;;;;;;;;;;5075296;28;20055;-77
2023/07/28 09:52:04;;;;;;;10.63;8.45;;;;;;;;;;5077944;28;20047;-76
2023/07/28 09:54:31;;;;;;;9.30;7.57;;;;;;;;;;5066953;28;20041;-77
2023/07/28 09:56:58;;;;;;;8.75;7.85;;;;;;;;;;5076212;28;20090;-79
2023/07/28 09:59:29;;;;;;;8.95;6.93;;;;;;;;;;5071899;28;20072;-76
2023/07/28 10:01:57;;;;;;;7.25;6.13;;;;;;;;;;5061005;28;20044;-78
2023/07/28 10:04:23;;;;;;;7.07;6.38;;;;;;;;;;5069067;28;20048;-77
2023/07/28 10:06:50;;;;;;;6.45;5.68;;;;;;;;;;5064526;28;20046;-76
2023/07/28 10:09:16;;;;;;;5.53;5.03;;;;;;;;;;5064991;28;20040;-76
2023/07/28 10:11:43;;;;;;;6.28;5.68;;;;;;;;;;5061056;28;20157;-75
2023/07/28 10:14:10;;;;;;;6.13;5.53;;;;;;;;;;5064356;28;20112;-76
2023/07/28 10:16:39;;;;;;;7.93;6.00;;;;;;;;;;5069153;28;20052;-76
2023/07/28 10:19:05;;;;;;;9.07;6.55;;;;;;;;;;5069749;28;20061;-76
2023/07/28 10:21:32;;;;;;;7.55;5.80;;;;;;;;;;5072397;28;20045;-76
2023/07/28 10:23:58;;;;;;;6.10;5.47;;;;;;;;;;5061783;28;20332;-76
2023/07/28 10:26:31;;;;;;;6.70;5.50;;;;;;;;;;5059605;28;20436;-76
2023/07/28 10:29:08;;;;;;;6.50;5.63;;;;;;;;;;5071783;28;20060;-76
2023/07/28 10:31:34;;;;;;;6.15;5.55;;;;;;;;;;5061235;28;20094;-76
2023/07/28 10:34:00;;;;;;;8.90;6.82;;;;;;;;;;5071545;28;20060;-76
2023/07/28 10:36:26;;;;;;;6.43;5.72;;;;;;;;;;5067612;28;20491;-76
2023/07/28 10:39:05;;;;;;;5.65;4.97;;;;;;;;;;5069779;28;20048;-76
2023/07/28 10:41:31;;;;;;;6.00;5.40;;;;;;;;;;5065173;28;20043;-77
2023/07/28 10:43:57;;;;;;;5.47;4.95;;;;;;;;;;5077619;28;20071;-75
2023/07/28 10:46:23;;;;;;;6.28;5.35;;;;;;;;;;5072315;28;20041;-75
2023/07/28 10:48:50;;;;;;;9.90;5.07;;;;;;;;;;5075095;28;20118;-75
2023/07/28 10:51:28;;;;;;;6.18;5.57;;;;;;;;;;5071007;28;20127;-75
2023/07/28 10:53:57;;;;;;;6.70;5.55;;;;;;;;;;5071707;28;20056;-76
2023/07/28 10:56:23;;;;;;;6.90;5.25;;;;;;;;;;5069394;28;20043;-75
2023/07/28 10:58:59;;;;;;;6.72;6.03;;;;;;;;;;5064869;28;20147;-75
2023/07/28 11:01:33;;;;;;;6.03;5.43;;;;;;;;;;5072009;28;20121;-75
2023/07/28 11:04:06;;;;;;;7.32;6.20;;;;;;;;;;5067681;28;20456;-75
2023/07/28 11:06:32;;;;;;;6.85;5.60;;;;;;;;;;5072022;28;20052;-75
2023/07/28 11:08:58;;;;;;;8.07;6.97;;;;;;;;;;5075302;28;20040;-75
2023/07/28 11:11:24;;;;;;;7.35;5.35;;;;;;;;;;5073885;28;20458;-75
2023/07/28 11:13:51;;;;;;;6.75;6.05;;;;;;;;;;5071002;28;20119;-75
2023/07/28 11:16:17;;;;;;;5.75;4.65;;;;;;;;;;5070175;28;20406;-75
2023/07/28 11:18:43;;;;;;;7.40;6.30;;;;;;;;;;5066259;28;20505;-75
2023/07/28 11:21:09;;;;;;;8.00;7.20;;;;;;;;;;5071885;28;20041;-75
2023/07/28 11:23:35;;;;;;;7.50;6.75;;;;;;;;;;5074911;28;20051;-75
2023/07/28 11:26:01;;;;;;;6.60;6.00;;;;;;;;;;5069559;28;20098;-75
2023/07/28 11:28:28;;;;;;;6.50;5.75;;;;;;;;;;5055829;28;20560;-75
2023/07/28 11:30:54;;;;;;;9.55;5.22;;;;;;;;;;5074039;28;20463;-76
2023/07/28 11:33:20;;;;;;;5.53;4.78;;;;;;;;;;5062438;28;20546;-75
2023/07/28 11:35:47;;;;;;;5.30;4.80;;;;;;;;;;5064198;28;20041;-75
2023/07/28 11:38:14;;;;;;;5.80;4.68;;;;;;;;;;5063599;28;20052;-75
2023/07/28 11:40:41;;;;;;;5.78;4.18;;;;;;;;;;5069723;28;20048;-75
2023/07/28 11:43:08;;;;;;;5.70;5.20;;;;;;;;;;5064149;28;20044;-75
2023/07/28 11:45:34;;;;;;;6.90;6.20;;;;;;;;;;5059606;28;20048;-75
2023/07/28 11:48:01;;;;;;;8.48;6.30;;;;;;;;;;5069440;28;20044;-75
2023/07/28 11:50:29;;;;;;;6.05;5.22;;;;;;;;;;5063348;28;20064;-75
2023/07/28 11:52:56;;;;;;;5.75;5.10;;;;;;;;;;5071752;28;20086;-75
2023/07/28 11:55:22;;;;;;;6.13;5.05;;;;;;;;;;5073733;28;20055;-75
2023/07/28 11:57:48;;;;;;;6.68;5.00;;;;;;;;;;5074640;28;20121;-75
2023/07/28 12:00:18;;;;;;;4.60;4.20;;;;;;;;;;5074086;28;20368;-75
2023/07/28 12:02:45;;;;;;;6.15;4.25;;;;;;;;;;5074491;28;20624;-75
2023/07/28 12:05:18;;;;;;;4.68;3.65;;;;;;;;;;5074618;28;20124;-75
2023/07/28 12:07:50;;;;;;;5.35;3.90;;;;;;;;;;5074599;28;20170;-75
2023/07/28 12:10:17;;;;;;;3.25;2.95;;;;;;;;;;5074923;28;20044;-76
2023/07/28 12:12:45;;;;;;;4.38;3.30;;;;;;;;;;5072151;28;20213;-76
2023/07/28 12:15:27;;;;;;;4.35;3.25;;;;;;;;;;5071100;28;20040;-75
2023/07/28 12:18:12;;;;;;;4.93;3.65;;;;;;;;;;5069992;28;20033;-75
2023/07/28 12:20:40;;;;;;;3.75;3.40;;;;;;;;;;5068539;28;20063;-77
2023/07/28 12:23:07;;;;;;;3.40;3.10;;;;;;;;;;5064084;28;20533;-80
2023/07/28 12:25:34;;;;;;;4.72;3.40;;;;;;;;;;5056362;28;20057;-75
2023/07/28 12:28:00;;;;;;;4.75;3.65;;;;;;;;;;5064333;28;20044;-75
2023/07/28 12:30:27;;;;;;;4.95;3.65;;;;;;;;;;5066228;28;20041;-75
2023/07/28 12:32:53;;;;;;;4.47;3.78;;;;;;;;;;5070771;28;20505;-75
2023/07/28 12:35:19;;;;;;;9.52;3.30;;;;;;;;;;5074493;28;20079;-75
2023/07/28 12:37:45;;;;;;;3.78;3.20;;;;;;;;;;5069410;28;20185;-75
2023/07/28 12:40:12;;;;;;;5.88;3.33;;;;;;;;;;5074329;28;20072;-75
2023/07/28 12:42:38;;;;;;;4.32;3.50;;;;;;;;;;5066741;28;20048;-75
2023/07/28 12:45:06;;;;;;;5.30;2.70;;;;;;;;;;5074698;28;20040;-77
2023/07/28 12:47:32;;;;;;;4.28;2.90;;;;;;;;;;5073828;28;20490;-76
2023/07/28 12:49:58;;;;;;;2.80;2.38;;;;;;;;;;5066749;28;20448;-75
2023/07/28 12:52:24;;;;;;;4.15;3.00;;;;;;;;;;5073756;28;20040;-75
2023/07/28 12:54:50;;;;;;;2.92;2.63;;;;;;;;;;5073962;28;20047;-75
2023/07/28 12:57:16;;;;;;;4.03;2.80;;;;;;;;;;5073922;28;20041;-75
2023/07/28 12:59:42;;;;;;;5.05;3.65;;;;;;;;;;5070840;28;20044;-75
2023/07/28 13:02:08;;;;;;;3.88;3.03;;;;;;;;;;5071620;28;20043;-75
2023/07/28 13:04:34;;;;;;;5.22;2.90;;;;;;;;;;5070209;28;20474;-75
2023/07/28 13:07:00;;;;;;;5.10;2.80;;;;;;;;;;5062377;28;20082;-75
2023/07/28 13:09:27;;;;;;;3.85;2.50;;;;;;;;;;5071896;28;20040;-75
2023/07/28 13:11:53;;;;;;;3.42;2.70;;;;;;;;;;5073383;28;20041;-75
2023/07/28 13:14:19;;;;;;;4.13;2.90;;;;;;;;;;5072889;28;20048;-75
2023/07/28 13:16:45;;;;;;;3.92;3.00;;;;;;;;;;5054703;28;20454;-75
2023/07/28 13:19:11;;;;;;;6.57;3.63;;;;;;;;;;5071356;28;20136;-75
2023/07/28 13:21:37;;;;;;;4.03;3.25;;;;;;;;;;5073221;28;20109;-76
2023/07/28 13:24:04;;;;;;;4.70;3.30;;;;;;;;;;5068911;28;20055;-76
2023/07/28 13:26:30;;;;;;;4.60;2.50;;;;;;;;;;5073969;28;20048;-76
2023/07/28 13:28:58;;;;;;;4.55;3.00;;;;;;;;;;5075982;28;20071;-76
2023/07/28 13:31:24;;;;;;;6.10;3.50;;;;;;;;;;5075964;28;20053;-74
2023/07/28 13:33:50;;;;;;;10.35;4.35;;;;;;;;;;5075371;28;20052;-75
2023/07/28 13:36:16;;;;;;;3.50;2.85;;;;;;;;;;5063811;28;20044;-74
2023/07/28 13:38:42;;;;;;;2.88;2.20;;;;;;;;;;5065355;28;20045;-75
2023/07/28 13:41:08;;;;;;;2.70;2.50;;;;;;;;;;5069158;28;20395;-76
2023/07/28 13:43:36;;;;;;;6.40;3.30;;;;;;;;;;5071919;28;20119;-75
2023/07/28 13:46:04;;;;;;;3.20;2.30;;;;;;;;;;5063286;28;20047;-76
2023/07/28 13:48:31;;;;;;;2.40;2.17;;;;;;;;;;5068798;28;20098;-75
2023/07/28 13:50:57;;;;;;;2.58;2.28;;;;;;;;;;5068313;28;20036;-76
2023/07/28 13:53:23;;;;;;;7.13;4.00;;;;;;;;;;5073196;28;20185;-75
2023/07/28 13:55:50;;;;;;;3.78;2.20;;;;;;;;;;5069441;28;20102;-75
2023/07/28 13:58:16;;;;;;;2.63;2.33;;;;;;;;;;5064743;28;20044;-76
2023/07/28 14:00:42;;;;;;;5.72;2.92;;;;;;;;;;5069644;28;20486;-76
2023/07/28 14:03:09;;;;;;;2.33;2.13;;;;;;;;;;5072790;28;20040;-76
2023/07/28 14:05:35;;;;;;;4.00;2.33;;;;;;;;;;5070309;28;20050;-75
2023/07/28 14:08:01;;;;;;;4.63;2.28;;;;;;;;;;5068172;28;20094;-75
2023/07/28 14:10:27;;;;;;;4.07;2.50;;;;;;;;;;5072467;28;20059;-77
2023/07/28 14:12:54;;;;;;;2.42;2.22;;;;;;;;;;5061978;28;20056;-75
2023/07/28 14:15:20;;;;;;;4.72;2.33;;;;;;;;;;5068628;28;20047;-76
2023/07/28 14:17:46;;;;;;;3.15;2.38;;;;;;;;;;5069072;28;20174;-76
2023/07/28 14:20:12;;;;;;;3.13;2.45;;;;;;;;;;5076663;28;20040;-76
2023/07/28 14:22:38;;;;;;;3.28;2.17;;;;;;;;;;5065614;28;20070;-78
2023/07/28 14:25:04;;;;;;;2.63;2.13;;;;;;;;;;5074999;28;20055;-76
2023/07/28 14:27:30;;;;;;;3.95;2.50;;;;;;;;;;5075078;28;20471;-76